createdAt,value
2023-06-29T00:01:03.753Z,5.60
2023-06-29T00:03:33.652Z,5.50
2023-06-29T00:06:02.765Z,5.70
2023-06-29T00:08:37.067Z,5.60
2023-06-29T00:11:04.880Z,6.00
2023-06-29T00:13:31.933Z,6.30
2023-06-29T00:15:58.793Z,5.80
2023-06-29T00:18:29.556Z,5.90
2023-06-29T00:20:57.617Z,5.80
2023-06-29T00:23:26.130Z,6.50
2023-06-29T00:25:53.743Z,6.10
2023-06-29T00:28:20.577Z,5.70
2023-06-29T00:30:48.817Z,7.00
2023-06-29T00:33:15.642Z,6.70
2023-06-29T00:35:42.740Z,7.00
2023-06-29T00:38:09.821Z,7.00
2023-06-29T00:40:36.776Z,7.40
2023-06-29T00:43:03.695Z,6.60
2023-06-29T00:45:31.631Z,6.90
2023-06-29T00:47:58.969Z,7.10
2023-06-29T00:50:26.647Z,7.20
2023-06-29T00:52:54.068Z,7.80
2023-06-29T00:55:22.620Z,8.00
2023-06-29T00:57:49.434Z,7.20
2023-06-29T01:00:16.785Z,7.20
2023-06-29T01:02:44.377Z,7.20
2023-06-29T01:05:14.855Z,6.60
2023-06-29T01:07:51.601Z,7.40
2023-06-29T01:10:24.839Z,6.80
2023-06-29T01:12:53.335Z,6.80
2023-06-29T01:15:22.869Z,7.60
2023-06-29T01:17:56.041Z,7.80
2023-06-29T01:20:27.201Z,7.30
2023-06-29T01:22:56.003Z,7.40
2023-06-29T01:25:24.938Z,7.30
2023-06-29T01:27:51.837Z,6.80
2023-06-29T01:30:19.474Z,6.90
2023-06-29T01:32:46.956Z,6.60
2023-06-29T01:35:14.547Z,8.20
2023-06-29T01:37:57.099Z,7.40
2023-06-29T01:40:29.014Z,8.10
2023-06-29T01:42:58.195Z,8.00
2023-06-29T01:45:26.182Z,7.20
2023-06-29T01:47:56.866Z,7.60
2023-06-29T01:50:25.191Z,7.70
2023-06-29T01:52:52.011Z,7.60
2023-06-29T01:55:18.892Z,8.00
2023-06-29T01:57:45.718Z,8.10
2023-06-29T02:00:14.471Z,8.20
2023-06-29T02:02:41.966Z,8.60
2023-06-29T02:05:09.575Z,8.80
2023-06-29T02:07:36.543Z,8.40
2023-06-29T02:10:03.791Z,8.30
2023-06-29T02:12:31.914Z,8.20
2023-06-29T02:14:58.721Z,7.80
2023-06-29T02:17:25.569Z,8.00
2023-06-29T02:19:52.472Z,8.00
2023-06-29T02:22:19.214Z,8.60
2023-06-29T02:24:46.083Z,8.80
2023-06-29T02:27:12.998Z,8.90
2023-06-29T02:29:43.129Z,9.10
2023-06-29T02:32:09.933Z,10.00
2023-06-29T02:34:36.787Z,9.90
2023-06-29T02:37:04.878Z,9.90
2023-06-29T02:39:31.963Z,10.50
2023-06-29T02:41:58.961Z,10.50
2023-06-29T02:44:26.319Z,9.90
2023-06-29T02:46:53.097Z,10.60
2023-06-29T02:49:19.960Z,10.50
2023-06-29T02:51:47.634Z,11.70
2023-06-29T02:54:15.981Z,11.40
2023-06-29T02:56:44.446Z,11.70
2023-06-29T02:59:11.408Z,11.60
2023-06-29T03:01:38.199Z,11.90
2023-06-29T03:04:05.198Z,11.00
2023-06-29T03:06:34.553Z,11.40
2023-06-29T03:09:02.506Z,11.40
2023-06-29T03:11:29.332Z,11.10
2023-06-29T03:13:57.783Z,11.30
2023-06-29T03:16:24.721Z,12.00
2023-06-29T03:19:07.371Z,12.60
2023-06-29T03:21:34.558Z,13.10
2023-06-29T03:24:01.372Z,12.90
2023-06-29T03:26:28.192Z,11.90
2023-06-29T03:28:55.077Z,11.50
2023-06-29T03:31:21.922Z,12.50
2023-06-29T03:33:49.621Z,12.00
2023-06-29T03:36:16.787Z,12.00
2023-06-29T03:38:43.547Z,10.90
2023-06-29T03:41:10.566Z,11.90
2023-06-29T03:43:37.370Z,12.30
2023-06-29T03:46:04.169Z,12.20
2023-06-29T03:48:31.227Z,13.70
2023-06-29T03:50:58.653Z,12.90
2023-06-29T03:53:25.456Z,12.80
2023-06-29T03:55:52.353Z,12.70
2023-06-29T03:58:19.518Z,12.30
2023-06-29T04:00:46.475Z,11.70
2023-06-29T04:03:13.631Z,11.80
2023-06-29T04:05:40.728Z,11.70
2023-06-29T04:08:08.016Z,12.10
2023-06-29T04:10:35.380Z,12.40
2023-06-29T04:13:03.087Z,12.90
2023-06-29T04:15:31.504Z,12.60
2023-06-29T04:17:58.524Z,11.90
2023-06-29T04:20:25.890Z,12.80
2023-06-29T04:22:52.736Z,12.00
2023-06-29T04:25:19.791Z,11.70
2023-06-29T04:27:47.095Z,11.80
2023-06-29T04:30:14.246Z,12.10
2023-06-29T04:32:41.115Z,12.30
2023-06-29T04:35:10.801Z,12.60
2023-06-29T04:37:41.997Z,12.80
2023-06-29T04:40:11.018Z,12.90
2023-06-29T04:42:46.831Z,12.50
2023-06-29T04:45:19.222Z,12.20
2023-06-29T04:47:50.932Z,12.20
2023-06-29T04:50:27.644Z,12.00
2023-06-29T04:52:55.535Z,12.20
2023-06-29T04:55:23.939Z,12.40
2023-06-29T04:57:50.802Z,12.80
2023-06-29T05:00:18.070Z,12.70
2023-06-29T05:02:45.076Z,12.30
2023-06-29T05:05:12.809Z,11.00
2023-06-29T05:07:39.809Z,10.70
2023-06-29T05:10:07.139Z,11.80
2023-06-29T05:12:34.730Z,11.60
2023-06-29T05:15:01.546Z,11.20
2023-06-29T05:17:28.464Z,11.00
2023-06-29T05:19:55.387Z,9.40
2023-06-29T05:22:22.219Z,10.10
2023-06-29T05:24:49.165Z,10.50
2023-06-29T05:27:16.011Z,10.00
2023-06-29T05:29:42.852Z,9.50
2023-06-29T05:32:10.065Z,10.30
2023-06-29T05:34:37.027Z,9.40
2023-06-29T05:37:03.993Z,8.50
2023-06-29T05:39:30.887Z,7.70
2023-06-29T05:41:57.813Z,8.80
2023-06-29T05:44:24.660Z,7.80
2023-06-29T05:46:51.504Z,9.40
2023-06-29T05:49:18.514Z,9.60
2023-06-29T05:51:45.500Z,8.30
2023-06-29T05:54:12.529Z,7.70
2023-06-29T05:56:39.406Z,8.00
2023-06-29T05:59:06.305Z,8.00
2023-06-29T06:01:33.332Z,8.80
2023-06-29T06:04:00.419Z,9.20
2023-06-29T06:06:27.335Z,9.10
2023-06-29T06:08:54.158Z,8.00
2023-06-29T06:11:20.974Z,7.70
2023-06-29T06:13:47.845Z,7.20
2023-06-29T06:16:14.975Z,7.80
2023-06-29T06:18:42.595Z,7.50
2023-06-29T06:21:09.523Z,6.60
2023-06-29T06:23:36.696Z,7.10
2023-06-29T06:26:03.719Z,6.80
2023-06-29T06:28:30.552Z,6.60
2023-06-29T06:30:57.420Z,6.60
2023-06-29T06:33:24.422Z,6.80
2023-06-29T06:35:51.271Z,7.20
2023-06-29T06:38:18.725Z,7.00
2023-06-29T06:40:45.941Z,6.70
2023-06-29T06:43:12.887Z,6.60
2023-06-29T06:45:39.894Z,6.40
2023-06-29T06:48:06.819Z,6.20
2023-06-29T06:50:33.674Z,6.60
2023-06-29T06:53:01.057Z,6.30
2023-06-29T06:55:28.347Z,6.20
2023-06-29T06:57:55.193Z,6.50
2023-06-29T07:00:22.218Z,6.80
2023-06-29T07:02:49.163Z,6.80
2023-06-29T07:05:16.231Z,6.40
2023-06-29T07:07:43.126Z,6.30
2023-06-29T07:10:10.942Z,5.80
2023-06-29T07:12:38.079Z,5.80
2023-06-29T07:15:05.810Z,6.70
2023-06-29T07:17:33.602Z,6.10
2023-06-29T07:25:01.861Z,7.00
2023-06-29T07:27:28.688Z,5.50
2023-06-29T07:29:55.550Z,6.30
2023-06-29T07:32:22.430Z,5.50
2023-06-29T07:34:49.216Z,5.70
2023-06-29T07:37:16.377Z,5.60
2023-06-29T07:39:43.224Z,6.00
2023-06-29T07:42:10.075Z,5.80
2023-06-29T07:44:36.916Z,6.50
2023-06-29T07:47:04.005Z,7.80
2023-06-29T07:49:30.892Z,8.40
2023-06-29T07:51:59.045Z,8.90
2023-06-29T07:54:25.864Z,7.50
2023-06-29T07:59:22.592Z,8.00
2023-06-29T08:01:50.462Z,7.20
2023-06-29T08:06:42.859Z,7.00
2023-06-29T08:07:08.584Z,8.50
2023-06-29T08:09:36.826Z,7.70
2023-06-29T08:12:03.928Z,9.30
2023-06-29T08:14:33.488Z,9.20
2023-06-29T08:17:00.562Z,9.40
2023-06-29T08:19:27.660Z,9.70
2023-06-29T08:21:56.711Z,9.80
2023-06-29T08:24:23.752Z,10.40
2023-06-29T08:26:50.606Z,9.30
2023-06-29T08:29:17.795Z,10.40
2023-06-29T08:31:44.719Z,11.30
2023-06-29T08:34:11.915Z,10.70
2023-06-29T08:36:38.817Z,11.00
2023-06-29T08:39:05.646Z,10.90
2023-06-29T08:41:32.588Z,11.30
2023-06-29T08:43:59.482Z,12.80
2023-06-29T08:46:28.694Z,11.90
2023-06-29T08:48:55.771Z,12.90
2023-06-29T08:51:23.534Z,13.10
2023-06-29T08:53:51.332Z,13.10
2023-06-29T08:56:19.403Z,13.40
2023-06-29T08:58:46.618Z,13.60
2023-06-29T09:01:13.855Z,12.90
2023-06-29T09:03:41.619Z,14.90
2023-06-29T09:06:10.036Z,13.50
2023-06-29T09:08:39.068Z,12.90
2023-06-29T09:11:06.743Z,13.30
2023-06-29T09:13:34.884Z,12.00
2023-06-29T09:16:03.169Z,11.60
2023-06-29T09:18:31.003Z,12.30
2023-06-29T09:20:58.259Z,11.80
2023-06-29T09:23:27.890Z,11.60
2023-06-29T09:25:57.134Z,12.00
2023-06-29T09:28:25.219Z,11.70
2023-06-29T09:30:52.773Z,10.90
2023-06-29T09:33:20.533Z,11.60
2023-06-29T09:35:51.691Z,11.40
2023-06-29T09:38:19.373Z,10.60
2023-06-29T09:40:47.955Z,9.20
2023-06-29T09:43:18.214Z,10.40
2023-06-29T09:45:45.724Z,10.20
2023-06-29T09:50:53.525Z,9.60
2023-06-29T09:53:36.594Z,9.80
2023-06-29T09:56:04.649Z,10.00
2023-06-29T09:58:32.221Z,9.60
2023-06-29T10:01:01.444Z,9.40
2023-06-29T10:03:29.496Z,8.50
2023-06-29T10:06:00.626Z,8.00
2023-06-29T10:08:29.980Z,7.50
2023-06-29T10:11:03.827Z,7.10
2023-06-29T10:13:36.497Z,6.60
2023-06-29T10:16:04.282Z,6.90
2023-06-29T10:18:35.897Z,7.00
2023-06-29T10:21:02.982Z,6.40
2023-06-29T10:23:31.544Z,6.50
2023-06-29T10:26:01.001Z,6.70
2023-06-29T10:28:28.168Z,6.70
2023-06-29T10:30:59.406Z,6.30
2023-06-29T10:33:27.586Z,6.40
2023-06-29T10:35:59.253Z,5.90
2023-06-29T10:38:35.219Z,6.30
2023-06-29T10:41:06.009Z,5.80
2023-06-29T10:44:04.318Z,5.80
2023-06-29T10:46:46.484Z,6.20
2023-06-29T10:49:30.018Z,5.20
2023-06-29T10:52:04.204Z,5.70
2023-06-29T10:54:32.116Z,4.60
2023-06-29T10:57:02.470Z,4.80
2023-06-29T10:59:30.991Z,4.80
2023-06-29T11:01:58.501Z,4.10
2023-06-29T11:04:25.802Z,4.60
2023-06-29T11:06:52.771Z,4.80
2023-06-29T11:09:21.004Z,4.30
2023-06-29T11:11:49.676Z,4.50
2023-06-29T11:14:17.827Z,4.20
2023-06-29T11:16:44.746Z,4.30
2023-06-29T11:19:13.666Z,4.20
2023-06-29T11:21:42.215Z,4.10
2023-06-29T11:24:11.379Z,4.30
2023-06-29T11:26:38.475Z,3.90
2023-06-29T11:29:08.732Z,4.00
2023-06-29T11:31:35.692Z,3.80
2023-06-29T11:34:02.631Z,3.60
2023-06-29T11:36:30.967Z,4.10
2023-06-29T11:39:14.378Z,4.10
2023-06-29T11:41:42.305Z,3.80
2023-06-29T11:44:12.204Z,3.80
2023-06-29T11:46:54.233Z,3.90
2023-06-29T11:49:26.569Z,4.00
2023-06-29T11:51:54.119Z,3.50
2023-06-29T11:54:21.238Z,3.40
2023-06-29T11:56:49.995Z,3.50
2023-06-29T11:59:17.109Z,3.40
2023-06-29T12:01:45.849Z,3.30
2023-06-29T12:04:16.168Z,2.90
2023-06-29T12:06:58.974Z,3.20
2023-06-29T12:09:31.417Z,3.30
2023-06-29T12:12:00.540Z,3.40
2023-06-29T12:14:29.658Z,3.00
2023-06-29T12:19:34.396Z,3.30
2023-06-29T12:22:02.137Z,2.80
2023-06-29T12:24:30.124Z,3.40
2023-06-29T12:26:58.058Z,3.30
2023-06-29T12:29:24.980Z,3.10
2023-06-29T12:31:59.297Z,3.20
2023-06-29T12:34:26.542Z,3.10
2023-06-29T12:36:53.350Z,3.00
2023-06-29T12:39:20.954Z,2.90
2023-06-29T12:41:47.785Z,3.00
2023-06-29T12:44:14.617Z,3.20
2023-06-29T12:46:41.504Z,3.20
2023-06-29T12:49:08.738Z,3.30
2023-06-29T12:51:35.555Z,3.10
2023-06-29T12:54:02.664Z,3.20
2023-06-29T12:56:29.529Z,3.30
2023-06-29T12:58:56.432Z,3.10
2023-06-29T13:01:24.133Z,2.70
2023-06-29T13:03:51.102Z,5.30
2023-06-29T13:06:18.188Z,3.00
2023-06-29T13:08:45.007Z,2.80
2023-06-29T13:11:12.258Z,2.70
2023-06-29T13:13:39.203Z,3.20
2023-06-29T13:16:06.037Z,3.20
2023-06-29T13:18:32.899Z,3.20
2023-06-29T13:20:59.838Z,3.20
2023-06-29T13:23:26.740Z,3.40
2023-06-29T13:25:53.644Z,2.90
2023-06-29T13:28:21.600Z,2.70
2023-06-29T13:30:48.482Z,2.40
2023-06-29T13:33:15.673Z,2.80
2023-06-29T13:35:42.505Z,3.10
2023-06-29T13:38:09.356Z,2.90
2023-06-29T13:40:36.299Z,3.00
2023-06-29T13:43:03.195Z,3.00
2023-06-29T13:45:30.134Z,2.80
2023-06-29T13:48:00.587Z,2.50
2023-06-29T13:50:40.327Z,2.70
2023-06-29T13:53:08.048Z,2.50
2023-06-29T13:55:34.865Z,2.60
2023-06-29T13:58:01.803Z,2.50
2023-06-29T14:00:28.794Z,2.80
2023-06-29T14:02:58.173Z,2.60
2023-06-29T14:05:25.131Z,2.70
2023-06-29T14:07:52.049Z,2.50
2023-06-29T14:10:18.810Z,2.80
2023-06-29T14:12:45.789Z,2.20
2023-06-29T14:15:12.748Z,2.70
2023-06-29T14:17:40.099Z,2.70
2023-06-29T14:20:07.855Z,2.80
2023-06-29T14:22:36.682Z,2.70
2023-06-29T14:25:04.925Z,2.80
2023-06-29T14:27:31.841Z,2.70
2023-06-29T14:29:58.680Z,2.60
2023-06-29T14:32:25.658Z,3.20
2023-06-29T14:34:52.857Z,2.50
2023-06-29T14:37:19.760Z,2.70
2023-06-29T14:39:46.816Z,3.00
2023-06-29T14:42:13.699Z,2.60
2023-06-29T14:44:42.892Z,3.00
2023-06-29T14:47:11.352Z,2.80
2023-06-29T14:49:38.243Z,2.80
2023-06-29T14:52:05.324Z,2.70
2023-06-29T14:54:32.228Z,2.30
2023-06-29T14:56:59.269Z,2.70
2023-06-29T14:59:26.127Z,2.80
2023-06-29T15:01:53.065Z,2.90
2023-06-29T15:04:19.938Z,2.60
2023-06-29T15:06:52.320Z,2.60
2023-06-29T15:09:20.199Z,2.80
2023-06-29T15:11:47.109Z,2.90
2023-06-29T15:14:14.148Z,2.90
2023-06-29T15:16:41.157Z,2.70
2023-06-29T15:19:08.178Z,2.50
2023-06-29T15:21:35.129Z,2.70
2023-06-29T15:24:02.481Z,2.50
2023-06-29T15:26:29.400Z,2.70
2023-06-29T15:28:56.747Z,2.50
2023-06-29T15:31:23.684Z,2.70
2023-06-29T15:33:50.547Z,2.50
2023-06-29T15:36:17.521Z,2.60
2023-06-29T15:38:44.409Z,2.80
2023-06-29T15:41:11.312Z,2.60
2023-06-29T15:43:38.718Z,2.70
2023-06-29T15:46:05.781Z,2.70
2023-06-29T15:48:32.855Z,2.60
2023-06-29T15:51:00.975Z,2.70
2023-06-29T15:53:27.904Z,2.60
2023-06-29T15:55:54.800Z,2.60
2023-06-29T15:58:21.650Z,2.60
2023-06-29T16:00:48.473Z,2.50
2023-06-29T16:03:15.481Z,2.60
2023-06-29T16:05:42.506Z,2.70
2023-06-29T16:08:09.726Z,2.60
2023-06-29T16:10:36.598Z,2.80
2023-06-29T16:13:03.451Z,3.40
2023-06-29T16:15:30.754Z,2.70
2023-06-29T16:17:57.847Z,2.50
2023-06-29T16:20:24.715Z,2.40
2023-06-29T16:22:51.612Z,2.20
2023-06-29T16:25:24.459Z,2.40
2023-06-29T16:27:51.964Z,2.60
2023-06-29T16:30:18.907Z,2.50
2023-06-29T16:32:46.565Z,2.40
2023-06-29T16:35:14.283Z,2.30
2023-06-29T16:37:42.181Z,2.70
2023-06-29T16:40:09.557Z,2.60
2023-06-29T16:42:36.584Z,2.50
2023-06-29T16:45:04.206Z,2.20
2023-06-29T16:47:31.048Z,2.70
2023-06-29T16:49:59.033Z,2.60
2023-06-29T16:52:25.926Z,2.20
2023-06-29T16:54:52.687Z,2.50
2023-06-29T16:57:19.679Z,2.20
2023-06-29T16:59:46.512Z,2.20
2023-06-29T17:02:13.426Z,2.10
2023-06-29T17:04:41.031Z,2.50
2023-06-29T17:07:08.291Z,2.70
2023-06-29T17:09:35.119Z,2.60
2023-06-29T17:12:02.124Z,2.50
2023-06-29T17:14:28.944Z,2.50
2023-06-29T17:16:55.857Z,2.30
2023-06-29T17:19:22.906Z,2.40
2023-06-29T17:21:49.818Z,2.20
2023-06-29T17:24:16.715Z,2.30
2023-06-29T17:26:43.572Z,2.20
2023-06-29T17:29:10.480Z,2.30
2023-06-29T17:31:37.382Z,2.20
2023-06-29T17:34:04.194Z,2.40
2023-06-29T17:36:31.246Z,2.40
2023-06-29T17:38:58.154Z,2.70
2023-06-29T17:41:25.249Z,2.40
2023-06-29T17:43:52.082Z,3.00
2023-06-29T17:46:19.155Z,2.30
2023-06-29T17:48:46.351Z,2.70
2023-06-29T17:51:15.692Z,2.70
2023-06-29T17:53:45.406Z,2.70
2023-06-29T17:56:15.474Z,2.90
2023-06-29T17:58:44.573Z,3.20
2023-06-29T18:01:11.914Z,6.40
2023-06-29T18:03:40.591Z,17.00
2023-06-29T18:06:08.340Z,25.30
2023-06-29T18:08:35.324Z,29.20
2023-06-29T18:11:02.424Z,19.10
2023-06-29T18:13:29.200Z,35.50
2023-06-29T18:15:56.105Z,38.90
2023-06-29T18:18:22.965Z,26.30
2023-06-29T18:20:49.756Z,24.90
2023-06-29T18:23:16.555Z,13.50
2023-06-29T18:25:43.833Z,24.20
2023-06-29T18:28:11.121Z,10.90
2023-06-29T18:30:38.079Z,11.50
2023-06-29T18:33:04.969Z,4.90
2023-06-29T18:35:31.836Z,4.50
2023-06-29T18:37:58.656Z,4.70
2023-06-29T18:40:28.200Z,3.90
2023-06-29T18:42:55.172Z,3.10
2023-06-29T18:45:24.227Z,2.90
2023-06-29T18:47:51.087Z,2.90
2023-06-29T18:50:17.965Z,3.30
2023-06-29T18:52:45.843Z,3.10
2023-06-29T18:55:12.607Z,3.40
2023-06-29T18:57:39.521Z,3.20
2023-06-29T19:00:08.167Z,4.40
2023-06-29T19:02:35.121Z,6.80
2023-06-29T19:05:03.959Z,2.90
2023-06-29T19:07:30.950Z,3.30
2023-06-29T19:09:57.820Z,4.20
2023-06-29T19:12:38.706Z,3.10
2023-06-29T19:15:07.850Z,2.90
2023-06-29T19:17:35.332Z,2.90
2023-06-29T19:20:02.263Z,2.90
2023-06-29T19:22:29.097Z,3.10
2023-06-29T19:24:55.856Z,3.20
2023-06-29T19:27:22.718Z,3.20
2023-06-29T19:29:49.733Z,2.60
2023-06-29T19:32:16.616Z,2.80
2023-06-29T19:34:43.614Z,2.80
2023-06-29T19:37:11.425Z,3.00
2023-06-29T19:39:38.224Z,3.00
2023-06-29T19:42:06.465Z,3.50
2023-06-29T19:44:33.404Z,3.30
2023-06-29T19:47:00.237Z,3.20
2023-06-29T19:49:28.009Z,3.10
2023-06-29T19:51:58.990Z,3.20
2023-06-29T19:54:26.503Z,3.10
2023-06-29T19:56:53.504Z,3.00
2023-06-29T19:59:20.354Z,2.90
2023-06-29T20:01:47.215Z,3.00
2023-06-29T20:04:14.157Z,3.00
2023-06-29T20:07:45.451Z,3.40
2023-06-29T20:10:13.127Z,3.10
2023-06-29T20:12:40.241Z,3.00
2023-06-29T20:15:08.526Z,3.10
2023-06-29T20:17:36.026Z,3.10
2023-06-29T20:20:03.681Z,3.00
2023-06-29T20:22:31.188Z,2.80
2023-06-29T20:24:58.009Z,3.50
2023-06-29T20:27:26.296Z,3.20
2023-06-29T20:29:54.185Z,3.40
2023-06-29T20:32:22.498Z,3.80
2023-06-29T20:34:49.426Z,3.50
2023-06-29T20:37:16.296Z,3.40
2023-06-29T20:39:43.191Z,3.30
2023-06-29T20:42:10.000Z,3.20
2023-06-29T20:44:37.205Z,3.90
2023-06-29T20:47:04.664Z,3.30
2023-06-29T20:49:31.468Z,3.90
2023-06-29T20:51:59.484Z,3.50
2023-06-29T20:54:27.276Z,3.30
2023-06-29T20:56:54.465Z,4.00
2023-06-29T20:59:21.296Z,4.20
2023-06-29T21:01:48.230Z,4.10
2023-06-29T21:04:15.351Z,4.60
2023-06-29T21:06:42.226Z,4.60
2023-06-29T21:09:09.072Z,5.20
2023-06-29T21:11:38.578Z,4.40
2023-06-29T21:14:07.825Z,4.60
2023-06-29T21:16:35.428Z,4.50
2023-06-29T21:19:03.259Z,4.10
2023-06-29T21:21:30.309Z,4.60
2023-06-29T21:23:57.195Z,4.80
2023-06-29T21:26:25.318Z,4.80
2023-06-29T21:28:55.384Z,4.70
2023-06-29T21:31:22.538Z,3.80
2023-06-29T21:33:49.820Z,4.10
2023-06-29T21:36:16.935Z,3.90
2023-06-29T21:38:50.587Z,4.60
2023-06-29T21:41:17.880Z,4.00
2023-06-29T21:43:45.011Z,4.30
2023-06-29T21:46:11.858Z,3.90
2023-06-29T21:48:40.414Z,4.40
2023-06-29T21:51:08.597Z,4.50
2023-06-29T21:53:37.024Z,4.10
2023-06-29T21:56:20.884Z,3.80
2023-06-29T21:58:50.992Z,3.90
2023-06-29T22:01:17.946Z,3.60
2023-06-29T22:03:44.923Z,4.20
2023-06-29T22:06:12.065Z,4.60
2023-06-29T22:08:38.849Z,6.40
2023-06-29T22:11:06.166Z,8.40
2023-06-29T22:13:32.973Z,7.60
2023-06-29T22:15:59.863Z,9.60
2023-06-29T22:18:26.842Z,9.50
2023-06-29T22:20:53.866Z,5.50
2023-06-29T22:23:21.013Z,5.10
2023-06-29T22:25:48.080Z,5.00
2023-06-29T22:28:15.023Z,5.20
2023-06-29T22:30:41.834Z,5.50
2023-06-29T22:33:08.688Z,5.60
2023-06-29T22:35:35.658Z,5.90
2023-06-29T22:38:02.663Z,5.70
2023-06-29T22:40:29.478Z,5.10
2023-06-29T22:42:56.537Z,4.50
2023-06-29T22:45:23.724Z,4.50
2023-06-29T22:47:50.615Z,4.60
2023-06-29T22:50:17.478Z,4.60
2023-06-29T22:52:44.982Z,4.80
2023-06-29T22:55:11.911Z,4.70
2023-06-29T22:57:38.748Z,5.00
2023-06-29T23:00:08.502Z,4.60
2023-06-29T23:02:35.419Z,4.20
2023-06-29T23:05:02.287Z,3.90
2023-06-29T23:07:29.465Z,4.40
2023-06-29T23:09:56.355Z,3.90
2023-06-29T23:12:27.291Z,4.30
2023-06-29T23:14:56.096Z,4.50
2023-06-29T23:17:24.599Z,4.90
2023-06-29T23:19:51.617Z,4.00
2023-06-29T23:22:20.270Z,4.40
2023-06-29T23:24:47.356Z,4.20
2023-06-29T23:27:14.202Z,3.90
2023-06-29T23:29:41.522Z,4.60
2023-06-29T23:32:08.687Z,4.50
2023-06-29T23:34:35.604Z,5.30
2023-06-29T23:37:02.402Z,4.60
2023-06-29T23:39:29.238Z,4.40
2023-06-29T23:41:56.038Z,4.60
2023-06-29T23:44:22.968Z,4.50
2023-06-29T23:46:50.887Z,4.30
2023-06-29T23:49:20.394Z,4.50
2023-06-29T23:51:49.006Z,4.70
2023-06-29T23:54:16.582Z,4.80
2023-06-29T23:56:46.204Z,5.20
2023-06-29T23:59:13.076Z,5.20
